createdAt,value
2018-02-24T00:02:18.992Z,33.70
2018-02-24T00:04:45.189Z,33.20
2018-02-24T00:07:11.380Z,32.70
2018-02-24T00:09:37.601Z,33.30
2018-02-24T00:12:03.808Z,33.60
2018-02-24T00:14:30.014Z,33.50
2018-02-24T00:16:56.231Z,33.90
2018-02-24T00:19:22.432Z,33.80
2018-02-24T00:21:48.685Z,33.60
2018-02-24T00:24:15.641Z,33.90
2018-02-24T00:26:43.062Z,34.10
2018-02-24T00:29:09.302Z,33.90
2018-02-24T00:31:35.654Z,33.30
2018-02-24T00:34:02.054Z,33.90
2018-02-24T00:36:28.281Z,33.60
2018-02-24T00:38:54.523Z,33.90
2018-02-24T00:41:21.482Z,33.40
2018-02-24T00:43:47.709Z,33.90
2018-02-24T00:46:13.939Z,33.70
2018-02-24T00:48:40.152Z,33.50
2018-02-24T00:51:06.402Z,33.70
2018-02-24T00:53:32.615Z,34.20
2018-02-24T00:55:58.841Z,34.20
2018-02-24T00:58:25.060Z,33.90
2018-02-24T01:00:51.349Z,34.90
2018-02-24T01:03:17.547Z,34.70
2018-02-24T01:05:44.499Z,34.40
2018-02-24T01:08:10.700Z,34.60
2018-02-24T01:10:38.481Z,34.10
2018-02-24T01:13:04.680Z,34.50
2018-02-24T01:15:30.911Z,34.60
2018-02-24T01:17:57.136Z,34.80
2018-02-24T01:20:24.131Z,35.20
2018-02-24T01:22:50.336Z,35.10
2018-02-24T01:25:16.588Z,35.60
2018-02-24T01:27:43.550Z,35.30
2018-02-24T01:30:09.765Z,35.30
2018-02-24T01:32:36.007Z,35.00
2018-02-24T01:35:02.228Z,35.40
2018-02-24T01:37:28.476Z,35.80
2018-02-24T01:39:54.683Z,35.30
2018-02-24T01:42:20.914Z,34.60
2018-02-24T01:44:47.140Z,35.30
2018-02-24T01:47:13.365Z,34.60
2018-02-24T01:49:40.285Z,34.40
2018-02-24T01:52:06.518Z,34.40
2018-02-24T01:54:32.709Z,35.20
2018-02-24T01:56:58.931Z,34.90
2018-02-24T01:59:25.119Z,35.70
2018-02-24T02:01:52.114Z,35.30
2018-02-24T02:04:18.330Z,35.30
2018-02-24T02:06:44.566Z,35.50
2018-02-24T02:09:10.790Z,35.60
2018-02-24T02:11:37.000Z,35.50
2018-02-24T02:14:03.229Z,35.50
2018-02-24T02:16:30.178Z,35.30
2018-02-24T02:18:56.801Z,35.20
2018-02-24T02:21:23.010Z,34.80
2018-02-24T02:23:49.205Z,35.50
2018-02-24T02:26:15.468Z,35.30
2018-02-24T02:28:42.437Z,35.90
2018-02-24T02:31:09.348Z,35.90
2018-02-24T02:33:36.291Z,35.80
2018-02-24T02:36:02.453Z,35.80
2018-02-24T02:38:28.640Z,35.80
2018-02-24T02:40:54.841Z,35.90
2018-02-24T02:43:21.050Z,36.20
2018-02-24T02:45:47.261Z,36.80
2018-02-24T02:48:13.484Z,35.80
2018-02-24T02:50:39.696Z,35.80
2018-02-24T02:53:05.910Z,36.10
2018-02-24T02:55:32.102Z,35.80
2018-02-24T02:57:58.319Z,36.40
2018-02-24T03:00:24.569Z,36.80
2018-02-24T03:02:50.769Z,36.80
2018-02-24T03:05:16.969Z,36.00
2018-02-24T03:07:43.906Z,36.40
2018-02-24T03:10:10.093Z,36.30
2018-02-24T03:12:37.157Z,36.30
2018-02-24T03:15:03.371Z,35.70
2018-02-24T03:17:29.609Z,37.30
2018-02-24T03:19:58.225Z,35.90
2018-02-24T03:22:24.459Z,35.80
2018-02-24T03:24:50.679Z,35.40
2018-02-24T03:27:17.633Z,35.70
2018-02-24T03:29:43.841Z,35.70
2018-02-24T03:32:10.076Z,35.90
2018-02-24T03:34:36.272Z,35.50
2018-02-24T03:37:02.482Z,35.90
2018-02-24T03:39:29.037Z,35.80
2018-02-24T03:41:56.079Z,36.00
2018-02-24T03:44:22.261Z,35.80
2018-02-24T03:46:48.474Z,36.20
2018-02-24T03:49:14.656Z,36.20
2018-02-24T03:51:40.838Z,35.40
2018-02-24T03:54:07.038Z,35.60
2018-02-24T03:56:33.233Z,35.60
2018-02-24T03:58:59.442Z,36.20
2018-02-24T04:01:25.665Z,35.70
2018-02-24T04:03:51.910Z,35.90
2018-02-24T04:06:18.110Z,36.30
2018-02-24T04:08:45.055Z,35.80
2018-02-24T04:11:11.254Z,35.60
2018-02-24T04:13:37.458Z,36.70
2018-02-24T04:16:03.661Z,36.50
2018-02-24T04:18:29.860Z,36.40
2018-02-24T04:20:56.105Z,36.00
2018-02-24T04:23:22.337Z,36.70
2018-02-24T04:25:48.602Z,36.60
2018-02-24T04:28:14.849Z,36.70
2018-02-24T04:30:41.065Z,36.20
2018-02-24T04:33:07.293Z,36.20
2018-02-24T04:35:33.517Z,35.90
2018-02-24T04:38:00.476Z,35.50
2018-02-24T04:40:26.691Z,35.50
2018-02-24T04:42:52.896Z,36.00
2018-02-24T04:45:19.136Z,35.70
2018-02-24T04:47:45.337Z,35.70
2018-02-24T04:50:11.546Z,36.60
2018-02-24T04:52:37.745Z,36.20
2018-02-24T04:55:03.931Z,36.10
2018-02-24T04:57:30.142Z,36.30
2018-02-24T04:59:56.337Z,35.50
2018-02-24T05:02:23.280Z,36.70
2018-02-24T05:04:49.535Z,36.70
2018-02-24T05:07:16.475Z,35.30
2018-02-24T05:09:42.684Z,35.30
2018-02-24T05:12:08.924Z,35.50
2018-02-24T05:14:35.152Z,35.80
2018-02-24T05:17:01.389Z,36.50
2018-02-24T05:19:27.624Z,36.30
2018-02-24T05:21:53.828Z,36.60
2018-02-24T05:24:20.098Z,36.30
2018-02-24T05:26:46.357Z,36.10
2018-02-24T05:29:16.876Z,35.70
2018-02-24T05:31:43.095Z,36.60
2018-02-24T05:34:10.044Z,35.80
2018-02-24T05:36:36.991Z,35.90
2018-02-24T05:39:03.948Z,35.40
2018-02-24T05:41:30.175Z,35.40
2018-02-24T05:43:56.401Z,34.90
2018-02-24T05:46:22.740Z,35.00
2018-02-24T05:48:48.982Z,34.80
2018-02-24T05:51:15.213Z,34.80
2018-02-24T05:53:41.475Z,34.70
2018-02-24T05:56:07.692Z,35.30
2018-02-24T05:58:33.944Z,34.70
2018-02-24T06:01:00.177Z,34.90
2018-02-24T06:03:26.392Z,35.10
2018-02-24T06:05:52.721Z,35.20
2018-02-24T06:08:19.101Z,34.80
2018-02-24T06:10:45.347Z,35.00
2018-02-24T06:13:11.902Z,34.50
2018-02-24T06:15:39.023Z,35.40
2018-02-24T06:18:05.969Z,34.40
2018-02-24T06:20:32.208Z,34.50
2018-02-24T06:22:58.438Z,35.20
2018-02-24T06:25:25.434Z,34.10
2018-02-24T06:27:51.649Z,34.10
2018-02-24T06:30:17.877Z,34.70
2018-02-24T06:32:44.085Z,34.20
2018-02-24T06:35:10.350Z,34.00
2018-02-24T06:37:36.601Z,34.20
2018-02-24T06:40:03.688Z,33.70
2018-02-24T06:42:29.915Z,33.50
2018-02-24T06:44:56.921Z,33.90
2018-02-24T06:47:23.130Z,33.80
2018-02-24T06:49:49.356Z,33.60
2018-02-24T06:52:15.585Z,33.20
2018-02-24T06:54:42.568Z,33.80
2018-02-24T06:57:09.611Z,33.20
2018-02-24T06:59:36.554Z,33.10
2018-02-24T07:02:02.871Z,33.00
2018-02-24T07:04:29.061Z,32.60
2018-02-24T07:06:56.022Z,32.40
2018-02-24T07:09:22.220Z,32.40
2018-02-24T07:11:49.273Z,32.90
2018-02-24T07:14:15.494Z,32.90
2018-02-24T07:16:41.722Z,32.40
2018-02-24T07:19:08.769Z,31.20
2018-02-24T07:21:35.098Z,31.10
2018-02-24T07:24:01.288Z,31.90
2018-02-24T07:26:27.496Z,32.10
2018-02-24T07:28:53.738Z,30.30
2018-02-24T07:31:20.681Z,30.00
2018-02-24T07:33:46.905Z,30.00
2018-02-24T07:36:12.940Z,29.90
2018-02-24T07:38:38.971Z,29.40
2018-02-24T07:41:05.027Z,29.00
2018-02-24T07:43:31.078Z,29.10
2018-02-24T07:45:57.122Z,27.80
2018-02-24T07:48:23.140Z,28.40
2018-02-24T07:50:49.214Z,28.50
2018-02-24T07:53:15.985Z,27.60
2018-02-24T07:55:42.751Z,27.60
2018-02-24T07:58:08.784Z,27.50
2018-02-24T08:00:35.609Z,27.10
2018-02-24T08:03:01.630Z,27.10
2018-02-24T08:05:27.646Z,27.40
2018-02-24T08:07:53.655Z,26.70
2018-02-24T08:10:19.694Z,26.60
2018-02-24T08:12:45.734Z,26.40
2018-02-24T08:15:11.768Z,26.20
2018-02-24T08:17:37.803Z,25.70
2018-02-24T08:20:03.873Z,25.80
2018-02-24T08:22:29.910Z,25.00
2018-02-24T08:24:56.696Z,25.30
2018-02-24T08:27:22.737Z,25.30
2018-02-24T08:29:48.752Z,24.60
2018-02-24T08:32:14.770Z,24.30
2018-02-24T08:34:40.788Z,23.40
2018-02-24T08:37:06.812Z,23.10
2018-02-24T08:39:32.857Z,22.60
2018-02-24T08:41:58.908Z,22.10
2018-02-24T08:44:24.925Z,21.00
2018-02-24T08:46:50.945Z,21.00
2018-02-24T08:49:17.032Z,20.70
2018-02-24T08:51:43.076Z,20.10
2018-02-24T08:54:09.211Z,19.80
2018-02-24T08:56:35.366Z,19.60
2018-02-24T08:59:01.489Z,19.70
2018-02-24T09:01:27.521Z,20.10
2018-02-24T09:03:53.547Z,19.80
2018-02-24T09:06:19.586Z,18.70
2018-02-24T09:08:45.608Z,18.90
2018-02-24T09:11:12.402Z,18.80
2018-02-24T09:13:39.165Z,19.80
2018-02-24T09:16:05.925Z,20.00
2018-02-24T09:18:32.686Z,19.40
2018-02-24T09:20:59.455Z,19.40
2018-02-24T09:23:25.469Z,19.40
2018-02-24T09:25:51.502Z,18.80
2018-02-24T09:28:18.248Z,20.10
2018-02-24T09:30:44.280Z,20.10
2018-02-24T09:33:11.055Z,19.80
2018-02-24T09:35:37.093Z,19.70
2018-02-24T09:38:03.230Z,19.80
2018-02-24T09:40:29.301Z,18.70
2018-02-24T09:42:55.307Z,20.10
2018-02-24T09:45:21.408Z,20.90
2018-02-24T09:47:48.176Z,20.10
2018-02-24T09:50:14.933Z,20.00
2018-02-24T09:52:41.781Z,19.20
2018-02-24T09:55:08.520Z,19.70
2018-02-24T09:57:34.533Z,19.70
2018-02-24T10:00:00.572Z,19.90
2018-02-24T10:02:26.673Z,19.60
2018-02-24T10:04:52.781Z,18.70
2018-02-24T10:07:19.000Z,18.60
2018-02-24T10:09:45.025Z,18.70
2018-02-24T10:12:11.890Z,19.20
2018-02-24T10:14:38.018Z,19.20
2018-02-24T10:17:04.095Z,20.00
2018-02-24T10:19:30.131Z,21.10
2018-02-24T10:21:56.894Z,20.70
2018-02-24T10:24:23.109Z,20.70
2018-02-24T10:26:49.984Z,20.20
2018-02-24T10:29:15.996Z,20.10
2018-02-24T10:31:42.765Z,21.40
2018-02-24T10:34:09.665Z,21.50
2018-02-24T10:36:35.681Z,21.50
2018-02-24T10:39:01.696Z,21.90
2018-02-24T10:41:28.461Z,21.40
2018-02-24T10:43:54.493Z,21.30
2018-02-24T10:46:20.569Z,22.10
2018-02-24T10:48:46.666Z,22.80
2018-02-24T10:51:13.396Z,23.20
2018-02-24T10:53:40.176Z,22.70
2018-02-24T10:56:06.201Z,22.70
2018-02-24T10:58:32.229Z,22.90
2018-02-24T11:00:59.013Z,24.10
2018-02-24T11:03:25.079Z,24.10
2018-02-24T11:05:51.179Z,23.90
2018-02-24T11:08:17.170Z,23.70
2018-02-24T11:10:43.420Z,23.40
2018-02-24T11:13:09.681Z,23.00
2018-02-24T11:15:35.883Z,22.70
2018-02-24T11:18:02.137Z,23.90
2018-02-24T11:20:28.358Z,23.30
2018-02-24T11:22:55.246Z,23.50
2018-02-24T11:25:21.572Z,23.60
2018-02-24T11:27:47.796Z,24.20
2018-02-24T11:30:14.070Z,26.00
2018-02-24T11:32:40.281Z,24.80
2018-02-24T11:35:06.548Z,25.50
2018-02-24T11:37:32.851Z,25.30
2018-02-24T11:39:59.128Z,25.20
2018-02-24T11:42:25.381Z,25.40
2018-02-24T11:44:52.360Z,25.10
2018-02-24T11:47:19.308Z,24.70
2018-02-24T11:49:46.323Z,24.50
2018-02-24T11:52:12.530Z,24.40
2018-02-24T11:54:39.012Z,25.10
2018-02-24T11:57:05.238Z,25.50
2018-02-24T11:59:31.449Z,25.80
2018-02-24T12:01:58.401Z,26.60
2018-02-24T12:04:25.395Z,26.40
2018-02-24T12:06:51.638Z,26.30
2018-02-24T12:09:18.104Z,25.90
2018-02-24T12:11:45.123Z,27.40
2018-02-24T12:14:11.365Z,27.20
2018-02-24T12:16:37.604Z,26.60
2018-02-24T12:19:03.800Z,26.20
2018-02-24T12:21:30.022Z,25.00
2018-02-24T12:23:56.231Z,26.40
2018-02-24T12:26:22.523Z,27.10
2018-02-24T12:28:48.700Z,26.70
2018-02-24T12:31:14.918Z,26.60
2018-02-24T12:33:41.873Z,26.70
2018-02-24T12:36:08.140Z,26.60
2018-02-24T12:38:34.369Z,26.00
2018-02-24T12:41:00.703Z,26.00
2018-02-24T12:43:26.981Z,26.80
2018-02-24T12:45:53.216Z,26.70
2018-02-24T12:48:19.454Z,26.20
2018-02-24T12:50:45.789Z,26.50
2018-02-24T12:53:12.053Z,24.90
2018-02-24T12:55:38.286Z,25.30
2018-02-24T12:58:04.524Z,26.00
2018-02-24T13:00:30.777Z,26.50
2018-02-24T13:02:56.967Z,26.60
2018-02-24T13:05:23.946Z,25.40
2018-02-24T13:07:50.231Z,25.20
2018-02-24T13:10:16.469Z,25.00
2018-02-24T13:12:42.675Z,25.70
2018-02-24T13:15:08.894Z,24.90
2018-02-24T13:17:35.086Z,25.80
2018-02-24T13:20:01.314Z,25.90
2018-02-24T13:22:27.518Z,25.50
2018-02-24T13:24:53.773Z,25.00
2018-02-24T13:27:19.798Z,25.40
2018-02-24T13:29:45.820Z,25.80
2018-02-24T13:32:11.886Z,26.00
2018-02-24T13:34:37.910Z,25.30
2018-02-24T13:37:03.942Z,26.10
2018-02-24T13:39:29.969Z,26.10
2018-02-24T13:41:55.993Z,26.40
2018-02-24T13:44:22.778Z,26.20
2018-02-24T13:46:48.866Z,26.20
2018-02-24T13:49:15.641Z,26.10
2018-02-24T13:51:41.668Z,25.90
2018-02-24T13:54:08.435Z,26.00
2018-02-24T13:56:34.469Z,25.90
2018-02-24T13:59:00.509Z,24.60
2018-02-24T14:01:26.523Z,25.30
2018-02-24T14:03:53.362Z,26.10
2018-02-24T14:06:19.399Z,26.10
2018-02-24T14:08:45.414Z,26.20
2018-02-24T14:11:11.527Z,24.90
2018-02-24T14:13:37.542Z,26.30
2018-02-24T14:16:03.578Z,27.30
2018-02-24T14:18:29.645Z,25.80
2018-02-24T14:20:55.720Z,25.90
2018-02-24T14:23:21.778Z,25.50
2018-02-24T14:25:47.834Z,26.70
2018-02-24T14:28:13.874Z,27.60
2018-02-24T14:30:39.919Z,27.50
2018-02-24T14:33:05.936Z,26.80
2018-02-24T14:35:31.961Z,27.30
2018-02-24T14:38:00.941Z,27.70
2018-02-24T14:40:27.033Z,27.40
2018-02-24T14:42:53.123Z,27.50
2018-02-24T14:45:19.158Z,27.50
2018-02-24T14:47:45.179Z,27.30
2018-02-24T14:50:11.742Z,27.70
2018-02-24T14:52:37.780Z,28.10
2018-02-24T14:55:06.944Z,27.60
2018-02-24T14:57:35.220Z,28.70
2018-02-24T15:00:01.256Z,28.70
2018-02-24T15:02:27.996Z,29.90
2018-02-24T15:04:54.808Z,29.10
2018-02-24T15:07:20.859Z,29.10
2018-02-24T15:09:46.885Z,29.00
2018-02-24T15:12:15.939Z,28.60
2018-02-24T15:14:42.781Z,29.20
2018-02-24T15:17:08.856Z,29.20
2018-02-24T15:19:35.612Z,29.60
2018-02-24T15:22:01.670Z,29.60
2018-02-24T15:24:27.692Z,30.10
2018-02-24T15:26:53.747Z,30.80
2018-02-24T15:29:19.908Z,30.10
2018-02-24T15:31:45.953Z,30.00
2018-02-24T15:34:12.331Z,30.00
2018-02-24T15:36:38.419Z,29.60
2018-02-24T15:39:04.554Z,29.60
2018-02-24T15:41:30.600Z,29.40
2018-02-24T15:43:56.802Z,29.40
2018-02-24T15:46:22.913Z,29.00
2018-02-24T15:48:48.940Z,28.70
2018-02-24T15:51:15.719Z,28.60
2018-02-24T15:53:42.164Z,29.10
2018-02-24T15:56:08.427Z,27.90
2018-02-24T15:58:34.504Z,27.50
2018-02-24T16:01:01.477Z,27.40
2018-02-24T16:03:27.491Z,26.90
2018-02-24T16:05:53.521Z,27.20
2018-02-24T16:08:19.578Z,26.20
2018-02-24T16:10:46.409Z,26.10
2018-02-24T16:13:12.488Z,26.10
2018-02-24T16:15:39.371Z,26.50
2018-02-24T16:18:05.413Z,26.40
2018-02-24T16:20:31.502Z,25.40
2018-02-24T16:22:57.620Z,25.90
2018-02-24T16:25:23.681Z,26.20
2018-02-24T16:27:50.517Z,26.30
2018-02-24T16:30:16.561Z,26.30
2018-02-24T16:32:42.635Z,25.90
2018-02-24T16:35:08.680Z,25.40
2018-02-24T16:37:34.700Z,25.30
2018-02-24T16:40:01.769Z,25.70
2018-02-24T16:42:27.857Z,25.70
2018-02-24T16:44:53.942Z,25.30
2018-02-24T16:47:20.020Z,25.40
2018-02-24T16:49:46.103Z,25.20
2018-02-24T16:52:12.145Z,25.60
2018-02-24T16:54:38.974Z,25.60
2018-02-24T16:57:04.985Z,25.50
2018-02-24T16:59:30.984Z,25.10
2018-02-24T17:01:57.065Z,25.50
2018-02-24T17:04:23.121Z,25.90
2018-02-24T17:06:49.138Z,25.60
2018-02-24T17:09:15.215Z,24.40
2018-02-24T17:11:41.274Z,24.70
2018-02-24T17:14:07.329Z,25.30
2018-02-24T17:16:33.364Z,24.80
2018-02-24T17:18:59.567Z,24.40
2018-02-24T17:21:25.817Z,24.30
2018-02-24T17:23:52.822Z,23.70
2018-02-24T17:26:19.017Z,23.70
2018-02-24T17:28:45.237Z,24.20
2018-02-24T17:31:11.441Z,23.80
2018-02-24T17:33:37.706Z,23.10
2018-02-24T17:36:03.928Z,23.00
2018-02-24T17:38:30.157Z,23.30
2018-02-24T17:40:57.690Z,23.20
2018-02-24T17:43:24.116Z,22.70
2018-02-24T17:45:50.342Z,22.70
2018-02-24T17:48:17.323Z,22.80
2018-02-24T17:50:43.614Z,22.80
2018-02-24T17:53:09.852Z,22.70
2018-02-24T17:55:36.049Z,22.80
2018-02-24T17:58:03.000Z,23.30
2018-02-24T18:00:29.960Z,23.40
2018-02-24T18:02:56.181Z,23.30
2018-02-24T18:05:22.518Z,23.00
2018-02-24T18:07:49.513Z,22.80
2018-02-24T18:10:16.494Z,23.00
2018-02-24T18:12:42.772Z,23.00
2018-02-24T18:15:08.997Z,23.30
2018-02-24T18:17:35.249Z,23.40
2018-02-24T18:20:01.755Z,23.40
2018-02-24T18:22:28.824Z,23.90
2018-02-24T18:24:55.033Z,23.80
2018-02-24T18:27:21.307Z,23.90
2018-02-24T18:29:47.593Z,24.10
2018-02-24T18:32:13.800Z,24.30
2018-02-24T18:34:40.733Z,24.50
2018-02-24T18:37:07.726Z,24.00
2018-02-24T18:39:36.057Z,24.30
2018-02-24T18:42:02.288Z,24.10
2018-02-24T18:44:28.513Z,24.20
2018-02-24T18:46:54.755Z,24.60
2018-02-24T18:49:21.034Z,24.40
2018-02-24T18:51:47.989Z,24.60
2018-02-24T18:54:14.209Z,24.60
2018-02-24T18:56:40.982Z,25.40
2018-02-24T18:59:07.021Z,25.30
2018-02-24T19:01:33.205Z,25.10
2018-02-24T19:03:59.225Z,25.40
2018-02-24T19:06:25.246Z,25.20
2018-02-24T19:08:51.261Z,25.40
2018-02-24T19:11:17.306Z,26.10
2018-02-24T19:13:43.705Z,25.90
2018-02-24T19:16:10.530Z,26.80
2018-02-24T19:18:36.561Z,26.70
2018-02-24T19:21:02.626Z,27.00
2018-02-24T19:23:29.684Z,27.40
2018-02-24T19:25:55.711Z,27.20
2018-02-24T19:28:21.745Z,27.30
2018-02-24T19:30:47.794Z,27.20
2018-02-24T19:33:14.126Z,27.50
2018-02-24T19:35:40.165Z,27.60
2018-02-24T19:38:06.208Z,27.10
2018-02-24T19:40:32.239Z,27.20
2018-02-24T19:42:58.277Z,26.90
2018-02-24T19:45:24.367Z,26.20
2018-02-24T19:47:50.424Z,25.80
2018-02-24T19:50:16.681Z,25.60
2018-02-24T19:52:42.830Z,25.40
2018-02-24T19:55:08.992Z,25.40
2018-02-24T19:57:35.838Z,25.10
2018-02-24T20:00:01.865Z,25.30
2018-02-24T20:02:27.915Z,26.00
2018-02-24T20:04:54.080Z,25.20
2018-02-24T20:07:20.840Z,25.30
2018-02-24T20:09:46.881Z,25.30
2018-02-24T20:12:12.975Z,25.40
2018-02-24T20:14:39.142Z,25.90
2018-02-24T20:17:05.972Z,26.00
2018-02-24T20:19:32.161Z,26.00
2018-02-24T20:21:58.216Z,25.30
2018-02-24T20:24:25.014Z,26.00
2018-02-24T20:26:51.864Z,26.30
2018-02-24T20:29:17.958Z,26.20
2018-02-24T20:31:44.007Z,26.30
2018-02-24T20:34:10.040Z,26.30
2018-02-24T20:36:36.192Z,26.00
2018-02-24T20:39:02.243Z,26.30
2018-02-24T20:41:28.997Z,26.40
2018-02-24T20:43:55.017Z,26.30
2018-02-24T20:46:21.058Z,26.20
2018-02-24T20:48:47.092Z,26.30
2018-02-24T20:51:13.128Z,25.80
2018-02-24T20:53:39.154Z,26.30
2018-02-24T20:56:05.193Z,26.20
2018-02-24T20:58:31.266Z,26.20
2018-02-24T21:00:58.082Z,25.90
2018-02-24T21:03:24.869Z,25.60
2018-02-24T21:05:51.645Z,26.30
2018-02-24T21:08:17.786Z,26.30
2018-02-24T21:10:43.850Z,26.00
2018-02-24T21:13:09.872Z,26.10
2018-02-24T21:15:35.908Z,26.80
2018-02-24T21:18:02.078Z,26.40
2018-02-24T21:20:28.949Z,26.50
2018-02-24T21:25:27.766Z,26.50
2018-02-24T21:27:55.073Z,27.50
2018-02-24T21:30:21.109Z,27.50
2018-02-24T21:32:47.142Z,27.20
2018-02-24T21:35:13.226Z,27.40
2018-02-24T21:37:39.262Z,27.50
2018-02-24T21:40:05.287Z,27.30
2018-02-24T21:42:31.317Z,27.50
2018-02-24T21:44:57.613Z,27.50
2018-02-24T21:47:24.452Z,27.50
2018-02-24T21:49:50.493Z,27.50
2018-02-24T21:52:16.522Z,27.50
2018-02-24T21:54:42.550Z,27.40
2018-02-24T21:57:08.626Z,27.40
2018-02-24T21:59:34.690Z,27.60
2018-02-24T22:02:00.713Z,27.40
2018-02-24T22:04:26.776Z,27.30
2018-02-24T22:06:53.576Z,27.60
2018-02-24T22:09:20.418Z,27.80
2018-02-24T22:11:46.499Z,27.80
2018-02-24T22:14:12.536Z,27.90
2018-02-24T22:16:38.572Z,28.20
2018-02-24T22:19:04.655Z,27.90
2018-02-24T22:21:30.689Z,28.00
2018-02-24T22:23:56.698Z,28.10
2018-02-24T22:26:22.847Z,28.00
2018-02-24T22:28:49.576Z,28.10
2018-02-24T22:31:15.629Z,28.00
2018-02-24T22:33:41.753Z,28.20
2018-02-24T22:36:07.789Z,28.30
2018-02-24T22:38:33.801Z,28.30
2018-02-24T22:40:59.829Z,28.50
2018-02-24T22:43:26.610Z,28.20
2018-02-24T22:45:52.903Z,28.20
2018-02-24T22:48:25.907Z,28.40
2018-02-24T22:50:51.929Z,28.40
2018-02-24T22:53:17.953Z,28.40
2018-02-24T22:55:44.027Z,28.20
2018-02-24T22:58:10.819Z,28.90
2018-02-24T23:00:36.859Z,28.90
2018-02-24T23:03:03.637Z,28.60
2018-02-24T23:05:29.644Z,28.60
2018-02-24T23:07:56.021Z,28.80
2018-02-24T23:10:22.069Z,28.80
2018-02-24T23:12:48.102Z,29.30
2018-02-24T23:15:14.148Z,28.90
2018-02-24T23:17:40.932Z,28.70
2018-02-24T23:20:06.962Z,28.70
2018-02-24T23:22:33.041Z,28.70
2018-02-24T23:24:59.077Z,29.00
2018-02-24T23:27:25.121Z,28.70
2018-02-24T23:29:51.325Z,28.80
2018-02-24T23:32:17.572Z,28.50
2018-02-24T23:34:44.546Z,28.70
2018-02-24T23:37:11.118Z,28.60
2018-02-24T23:39:37.157Z,28.40
2018-02-24T23:42:03.383Z,28.50
2018-02-24T23:44:29.590Z,28.90
2018-02-24T23:46:55.831Z,29.10
2018-02-24T23:49:22.077Z,28.50
2018-02-24T23:51:49.081Z,29.00
2018-02-24T23:54:15.277Z,28.90
2018-02-24T23:56:41.520Z,28.90
2018-02-24T23:59:07.750Z,28.80
